sensor_id;sensor_type;location;lat;lon;timestamp;P1;durP1;ratioP1;P2;durP2;ratioP2
2896;SDS011;1458;49.728;9.228;2022-12-26T00:00:38;0.53;;;0.53;;
2896;SDS011;1458;49.728;9.228;2022-12-26T00:03:06;0.40;;;0.40;;
2896;SDS011;1458;49.728;9.228;2022-12-26T00:05:36;0.40;;;0.40;;
2896;SDS011;1458;49.728;9.228;2022-12-26T00:08:03;0.40;;;0.40;;
2896;SDS011;1458;49.728;9.228;2022-12-26T00:10:32;0.60;;;0.60;;
2896;SDS011;1458;49.728;9.228;2022-12-26T00:12:59;0.40;;;0.40;;
2896;SDS011;1458;49.728;9.228;2022-12-26T00:15:27;0.40;;;0.40;;
2896;SDS011;1458;49.728;9.228;2022-12-26T00:17:54;0.40;;;0.40;;
2896;SDS011;1458;49.728;9.228;2022-12-26T00:20:21;0.40;;;0.40;;
2896;SDS011;1458;49.728;9.228;2022-12-26T00:22:50;0.50;;;0.50;;
2896;SDS011;1458;49.728;9.228;2022-12-26T00:25:18;0.40;;;0.40;;
2896;SDS011;1458;49.728;9.228;2022-12-26T00:27:45;0.40;;;0.40;;
2896;SDS011;1458;49.728;9.228;2022-12-26T00:30:12;0.40;;;0.40;;
2896;SDS011;1458;49.728;9.228;2022-12-26T00:32:40;0.40;;;0.40;;
2896;SDS011;1458;49.728;9.228;2022-12-26T00:35:08;0.40;;;0.40;;
2896;SDS011;1458;49.728;9.228;2022-12-26T00:37:35;0.40;;;0.40;;
2896;SDS011;1458;49.728;9.228;2022-12-26T00:40:05;0.40;;;0.40;;
2896;SDS011;1458;49.728;9.228;2022-12-26T00:42:34;0.40;;;0.40;;
2896;SDS011;1458;49.728;9.228;2022-12-26T00:45:01;0.40;;;0.40;;
2896;SDS011;1458;49.728;9.228;2022-12-26T00:47:30;0.40;;;0.40;;
2896;SDS011;1458;49.728;9.228;2022-12-26T00:49:57;0.40;;;0.40;;
2896;SDS011;1458;49.728;9.228;2022-12-26T00:52:24;0.40;;;0.40;;
2896;SDS011;1458;49.728;9.228;2022-12-26T00:54:52;0.50;;;0.50;;
2896;SDS011;1458;49.728;9.228;2022-12-26T00:57:20;0.40;;;0.40;;
2896;SDS011;1458;49.728;9.228;2022-12-26T00:59:48;0.40;;;0.40;;
2896;SDS011;1458;49.728;9.228;2022-12-26T01:02:15;0.30;;;0.30;;
2896;SDS011;1458;49.728;9.228;2022-12-26T01:05:00;0.40;;;0.40;;
2896;SDS011;1458;49.728;9.228;2022-12-26T01:07:27;0.40;;;0.40;;
2896;SDS011;1458;49.728;9.228;2022-12-26T01:09:57;0.40;;;0.40;;
2896;SDS011;1458;49.728;9.228;2022-12-26T01:12:26;0.40;;;0.40;;
2896;SDS011;1458;49.728;9.228;2022-12-26T01:14:54;0.30;;;0.30;;
2896;SDS011;1458;49.728;9.228;2022-12-26T01:17:22;0.40;;;0.40;;
2896;SDS011;1458;49.728;9.228;2022-12-26T01:19:50;0.40;;;0.40;;
2896;SDS011;1458;49.728;9.228;2022-12-26T01:22:17;0.40;;;0.40;;
2896;SDS011;1458;49.728;9.228;2022-12-26T01:24:45;0.40;;;0.40;;
2896;SDS011;1458;49.728;9.228;2022-12-26T01:27:13;0.60;;;0.60;;
2896;SDS011;1458;49.728;9.228;2022-12-26T01:29:41;0.40;;;0.40;;
2896;SDS011;1458;49.728;9.228;2022-12-26T01:32:09;0.30;;;0.30;;
2896;SDS011;1458;49.728;9.228;2022-12-26T01:34:37;0.40;;;0.40;;
2896;SDS011;1458;49.728;9.228;2022-12-26T01:37:04;0.40;;;0.40;;
2896;SDS011;1458;49.728;9.228;2022-12-26T01:39:31;0.40;;;0.40;;
2896;SDS011;1458;49.728;9.228;2022-12-26T01:41:59;0.40;;;0.40;;
2896;SDS011;1458;49.728;9.228;2022-12-26T01:47:34;0.40;;;0.40;;
2896;SDS011;1458;49.728;9.228;2022-12-26T01:50:11;0.40;;;0.40;;
2896;SDS011;1458;49.728;9.228;2022-12-26T01:52:52;0.40;;;0.40;;
2896;SDS011;1458;49.728;9.228;2022-12-26T01:55:24;0.30;;;0.30;;
2896;SDS011;1458;49.728;9.228;2022-12-26T01:57:54;0.60;;;0.60;;
2896;SDS011;1458;49.728;9.228;2022-12-26T02:00:28;0.40;;;0.40;;
2896;SDS011;1458;49.728;9.228;2022-12-26T02:02:56;0.40;;;0.40;;
2896;SDS011;1458;49.728;9.228;2022-12-26T02:05:42;0.30;;;0.30;;
2896;SDS011;1458;49.728;9.228;2022-12-26T02:08:10;0.40;;;0.40;;
2896;SDS011;1458;49.728;9.228;2022-12-26T02:10:45;0.30;;;0.30;;
2896;SDS011;1458;49.728;9.228;2022-12-26T02:13:20;0.47;;;0.47;;
2896;SDS011;1458;49.728;9.228;2022-12-26T02:15:50;0.30;;;0.30;;
2896;SDS011;1458;49.728;9.228;2022-12-26T02:18:18;0.40;;;0.40;;
2896;SDS011;1458;49.728;9.228;2022-12-26T02:20:47;0.40;;;0.40;;
2896;SDS011;1458;49.728;9.228;2022-12-26T02:23:52;0.50;;;0.50;;
2896;SDS011;1458;49.728;9.228;2022-12-26T02:26:54;0.37;;;0.37;;
2896;SDS011;1458;49.728;9.228;2022-12-26T02:30:06;0.50;;;0.50;;
2896;SDS011;1458;49.728;9.228;2022-12-26T02:33:14;0.40;;;0.40;;
2896;SDS011;1458;49.728;9.228;2022-12-26T02:36:00;0.40;;;0.40;;
2896;SDS011;1458;49.728;9.228;2022-12-26T02:39:07;0.40;;;0.40;;
2896;SDS011;1458;49.728;9.228;2022-12-26T02:41:47;0.40;;;0.40;;
2896;SDS011;1458;49.728;9.228;2022-12-26T02:44:26;0.30;;;0.30;;
2896;SDS011;1458;49.728;9.228;2022-12-26T02:47:21;0.30;;;0.30;;
2896;SDS011;1458;49.728;9.228;2022-12-26T02:50:00;0.40;;;0.40;;
2896;SDS011;1458;49.728;9.228;2022-12-26T02:52:56;0.30;;;0.30;;
2896;SDS011;1458;49.728;9.228;2022-12-26T02:55:51;0.40;;;0.40;;
2896;SDS011;1458;49.728;9.228;2022-12-26T02:58:43;0.40;;;0.40;;
2896;SDS011;1458;49.728;9.228;2022-12-26T03:01:37;0.40;;;0.40;;
2896;SDS011;1458;49.728;9.228;2022-12-26T03:04:28;0.30;;;0.30;;
2896;SDS011;1458;49.728;9.228;2022-12-26T03:07:18;0.50;;;0.50;;
2896;SDS011;1458;49.728;9.228;2022-12-26T03:10:13;0.40;;;0.40;;
2896;SDS011;1458;49.728;9.228;2022-12-26T03:13:04;0.40;;;0.40;;
2896;SDS011;1458;49.728;9.228;2022-12-26T03:15:40;0.40;;;0.40;;
2896;SDS011;1458;49.728;9.228;2022-12-26T03:18:28;0.30;;;0.30;;
2896;SDS011;1458;49.728;9.228;2022-12-26T03:21:01;0.40;;;0.40;;
2896;SDS011;1458;49.728;9.228;2022-12-26T03:23:31;0.40;;;0.40;;
2896;SDS011;1458;49.728;9.228;2022-12-26T03:26:01;0.40;;;0.40;;
2896;SDS011;1458;49.728;9.228;2022-12-26T03:28:50;0.40;;;0.40;;
2896;SDS011;1458;49.728;9.228;2022-12-26T03:31:37;0.40;;;0.40;;
2896;SDS011;1458;49.728;9.228;2022-12-26T03:34:04;0.40;;;0.40;;
2896;SDS011;1458;49.728;9.228;2022-12-26T03:36:56;0.40;;;0.40;;
2896;SDS011;1458;49.728;9.228;2022-12-26T03:39:54;0.40;;;0.40;;
2896;SDS011;1458;49.728;9.228;2022-12-26T03:42:50;0.40;;;0.40;;
2896;SDS011;1458;49.728;9.228;2022-12-26T03:45:44;0.40;;;0.40;;
2896;SDS011;1458;49.728;9.228;2022-12-26T03:48:39;0.37;;;0.37;;
2896;SDS011;1458;49.728;9.228;2022-12-26T03:51:33;0.40;;;0.40;;
2896;SDS011;1458;49.728;9.228;2022-12-26T03:54:27;0.40;;;0.40;;
2896;SDS011;1458;49.728;9.228;2022-12-26T03:57:20;0.40;;;0.40;;
2896;SDS011;1458;49.728;9.228;2022-12-26T04:00:12;0.40;;;0.40;;
2896;SDS011;1458;49.728;9.228;2022-12-26T04:02:59;0.40;;;0.40;;
2896;SDS011;1458;49.728;9.228;2022-12-26T04:05:50;0.40;;;0.40;;
2896;SDS011;1458;49.728;9.228;2022-12-26T04:08:40;0.40;;;0.40;;
2896;SDS011;1458;49.728;9.228;2022-12-26T04:11:31;0.40;;;0.40;;
2896;SDS011;1458;49.728;9.228;2022-12-26T04:14:20;0.43;;;0.43;;
2896;SDS011;1458;49.728;9.228;2022-12-26T04:17:21;0.40;;;0.40;;
2896;SDS011;1458;49.728;9.228;2022-12-26T04:20:14;0.47;;;0.47;;
2896;SDS011;1458;49.728;9.228;2022-12-26T04:22:48;0.40;;;0.40;;
2896;SDS011;1458;49.728;9.228;2022-12-26T04:25:43;0.40;;;0.40;;
2896;SDS011;1458;49.728;9.228;2022-12-26T04:28:36;0.30;;;0.30;;
2896;SDS011;1458;49.728;9.228;2022-12-26T04:31:22;0.30;;;0.30;;
2896;SDS011;1458;49.728;9.228;2022-12-26T04:34:14;0.30;;;0.30;;
2896;SDS011;1458;49.728;9.228;2022-12-26T04:37:06;0.40;;;0.40;;
2896;SDS011;1458;49.728;9.228;2022-12-26T04:39:56;0.30;;;0.30;;
2896;SDS011;1458;49.728;9.228;2022-12-26T04:42:45;0.30;;;0.30;;
2896;SDS011;1458;49.728;9.228;2022-12-26T04:45:32;0.30;;;0.30;;
2896;SDS011;1458;49.728;9.228;2022-12-26T04:48:00;0.30;;;0.30;;
2896;SDS011;1458;49.728;9.228;2022-12-26T04:50:48;0.30;;;0.30;;
2896;SDS011;1458;49.728;9.228;2022-12-26T04:53:17;0.30;;;0.30;;
2896;SDS011;1458;49.728;9.228;2022-12-26T04:55:46;0.37;;;0.37;;
2896;SDS011;1458;49.728;9.228;2022-12-26T04:58:14;0.40;;;0.40;;
2896;SDS011;1458;49.728;9.228;2022-12-26T05:00:43;0.30;;;0.30;;
2896;SDS011;1458;49.728;9.228;2022-12-26T05:03:11;0.30;;;0.30;;
2896;SDS011;1458;49.728;9.228;2022-12-26T05:05:57;0.30;;;0.30;;
2896;SDS011;1458;49.728;9.228;2022-12-26T05:08:42;0.40;;;0.40;;
2896;SDS011;1458;49.728;9.228;2022-12-26T05:11:30;0.37;;;0.37;;
2896;SDS011;1458;49.728;9.228;2022-12-26T05:13:59;0.30;;;0.30;;
2896;SDS011;1458;49.728;9.228;2022-12-26T05:16:29;0.30;;;0.30;;
2896;SDS011;1458;49.728;9.228;2022-12-26T05:19:15;0.30;;;0.30;;
2896;SDS011;1458;49.728;9.228;2022-12-26T05:22:01;0.30;;;0.30;;
2896;SDS011;1458;49.728;9.228;2022-12-26T05:24:53;0.30;;;0.30;;
2896;SDS011;1458;49.728;9.228;2022-12-26T05:27:39;0.30;;;0.30;;
2896;SDS011;1458;49.728;9.228;2022-12-26T05:30:26;0.30;;;0.30;;
2896;SDS011;1458;49.728;9.228;2022-12-26T05:32:55;0.30;;;0.30;;
2896;SDS011;1458;49.728;9.228;2022-12-26T05:35:40;0.30;;;0.30;;
2896;SDS011;1458;49.728;9.228;2022-12-26T05:38:08;0.30;;;0.30;;
2896;SDS011;1458;49.728;9.228;2022-12-26T05:40:36;0.33;;;0.33;;
2896;SDS011;1458;49.728;9.228;2022-12-26T05:43:04;0.30;;;0.30;;
2896;SDS011;1458;49.728;9.228;2022-12-26T05:45:31;0.30;;;0.30;;
2896;SDS011;1458;49.728;9.228;2022-12-26T05:48:01;0.30;;;0.30;;
2896;SDS011;1458;49.728;9.228;2022-12-26T05:50:29;0.40;;;0.40;;
2896;SDS011;1458;49.728;9.228;2022-12-26T05:52:56;0.30;;;0.30;;
2896;SDS011;1458;49.728;9.228;2022-12-26T05:55:25;0.30;;;0.30;;
2896;SDS011;1458;49.728;9.228;2022-12-26T05:57:52;0.30;;;0.30;;
2896;SDS011;1458;49.728;9.228;2022-12-26T06:00:20;0.30;;;0.30;;
2896;SDS011;1458;49.728;9.228;2022-12-26T06:02:48;0.30;;;0.30;;
2896;SDS011;1458;49.728;9.228;2022-12-26T06:05:17;0.30;;;0.30;;
2896;SDS011;1458;49.728;9.228;2022-12-26T06:07:45;0.30;;;0.30;;
2896;SDS011;1458;49.728;9.228;2022-12-26T06:10:12;0.30;;;0.30;;
2896;SDS011;1458;49.728;9.228;2022-12-26T06:12:40;0.30;;;0.30;;
2896;SDS011;1458;49.728;9.228;2022-12-26T06:15:08;0.30;;;0.30;;
2896;SDS011;1458;49.728;9.228;2022-12-26T06:17:37;0.30;;;0.30;;
2896;SDS011;1458;49.728;9.228;2022-12-26T06:20:05;0.40;;;0.40;;
2896;SDS011;1458;49.728;9.228;2022-12-26T06:22:38;0.30;;;0.30;;
2896;SDS011;1458;49.728;9.228;2022-12-26T06:25:06;0.30;;;0.30;;
2896;SDS011;1458;49.728;9.228;2022-12-26T06:27:34;0.37;;;0.37;;
2896;SDS011;1458;49.728;9.228;2022-12-26T06:30:02;0.30;;;0.30;;
2896;SDS011;1458;49.728;9.228;2022-12-26T06:32:30;0.30;;;0.30;;
2896;SDS011;1458;49.728;9.228;2022-12-26T06:34:59;0.40;;;0.40;;
2896;SDS011;1458;49.728;9.228;2022-12-26T06:37:26;0.30;;;0.30;;
2896;SDS011;1458;49.728;9.228;2022-12-26T06:39:56;0.30;;;0.30;;
2896;SDS011;1458;49.728;9.228;2022-12-26T06:42:24;0.40;;;0.40;;
2896;SDS011;1458;49.728;9.228;2022-12-26T06:44:51;0.40;;;0.40;;
2896;SDS011;1458;49.728;9.228;2022-12-26T06:47:19;0.40;;;0.40;;
2896;SDS011;1458;49.728;9.228;2022-12-26T06:49:46;0.40;;;0.40;;
2896;SDS011;1458;49.728;9.228;2022-12-26T06:52:14;0.40;;;0.40;;
2896;SDS011;1458;49.728;9.228;2022-12-26T06:54:42;0.40;;;0.40;;
2896;SDS011;1458;49.728;9.228;2022-12-26T06:57:11;0.40;;;0.40;;
2896;SDS011;1458;49.728;9.228;2022-12-26T06:59:38;0.60;;;0.60;;
2896;SDS011;1458;49.728;9.228;2022-12-26T07:02:07;0.40;;;0.40;;
2896;SDS011;1458;49.728;9.228;2022-12-26T07:04:36;0.40;;;0.40;;
2896;SDS011;1458;49.728;9.228;2022-12-26T07:07:03;0.50;;;0.50;;
2896;SDS011;1458;49.728;9.228;2022-12-26T07:09:31;0.40;;;0.40;;
2896;SDS011;1458;49.728;9.228;2022-12-26T07:11:58;0.40;;;0.40;;
2896;SDS011;1458;49.728;9.228;2022-12-26T07:14:28;0.47;;;0.47;;
2896;SDS011;1458;49.728;9.228;2022-12-26T07:16:56;0.40;;;0.40;;
2896;SDS011;1458;49.728;9.228;2022-12-26T07:19:23;0.40;;;0.40;;
2896;SDS011;1458;49.728;9.228;2022-12-26T07:21:50;0.40;;;0.40;;
2896;SDS011;1458;49.728;9.228;2022-12-26T07:24:18;0.40;;;0.40;;
2896;SDS011;1458;49.728;9.228;2022-12-26T07:26:47;0.40;;;0.40;;
2896;SDS011;1458;49.728;9.228;2022-12-26T07:29:15;0.40;;;0.40;;
2896;SDS011;1458;49.728;9.228;2022-12-26T07:31:44;0.40;;;0.40;;
2896;SDS011;1458;49.728;9.228;2022-12-26T07:34:12;0.40;;;0.40;;
2896;SDS011;1458;49.728;9.228;2022-12-26T07:36:40;0.40;;;0.40;;
2896;SDS011;1458;49.728;9.228;2022-12-26T07:39:07;0.30;;;0.30;;
2896;SDS011;1458;49.728;9.228;2022-12-26T07:41:35;0.40;;;0.40;;
2896;SDS011;1458;49.728;9.228;2022-12-26T07:44:20;0.30;;;0.30;;
2896;SDS011;1458;49.728;9.228;2022-12-26T07:46:48;0.30;;;0.30;;
2896;SDS011;1458;49.728;9.228;2022-12-26T07:49:16;0.30;;;0.30;;
2896;SDS011;1458;49.728;9.228;2022-12-26T07:51:44;0.30;;;0.30;;
2896;SDS011;1458;49.728;9.228;2022-12-26T07:54:11;0.20;;;0.20;;
2896;SDS011;1458;49.728;9.228;2022-12-26T07:56:39;0.20;;;0.20;;
2896;SDS011;1458;49.728;9.228;2022-12-26T07:59:07;0.20;;;0.20;;
2896;SDS011;1458;49.728;9.228;2022-12-26T08:01:40;0.20;;;0.20;;
2896;SDS011;1458;49.728;9.228;2022-12-26T08:04:11;0.20;;;0.20;;
2896;SDS011;1458;49.728;9.228;2022-12-26T08:06:39;0.20;;;0.20;;
2896;SDS011;1458;49.728;9.228;2022-12-26T08:09:09;0.20;;;0.20;;
2896;SDS011;1458;49.728;9.228;2022-12-26T08:11:40;0.20;;;0.20;;
2896;SDS011;1458;49.728;9.228;2022-12-26T08:14:09;0.20;;;0.20;;
2896;SDS011;1458;49.728;9.228;2022-12-26T08:16:37;0.20;;;0.20;;
2896;SDS011;1458;49.728;9.228;2022-12-26T08:19:05;0.20;;;0.20;;
2896;SDS011;1458;49.728;9.228;2022-12-26T08:21:33;0.20;;;0.20;;
2896;SDS011;1458;49.728;9.228;2022-12-26T08:24:01;0.20;;;0.20;;
2896;SDS011;1458;49.728;9.228;2022-12-26T08:26:29;0.20;;;0.20;;
2896;SDS011;1458;49.728;9.228;2022-12-26T08:28:56;0.20;;;0.20;;
2896;SDS011;1458;49.728;9.228;2022-12-26T08:31:23;0.20;;;0.20;;
2896;SDS011;1458;49.728;9.228;2022-12-26T08:33:53;0.20;;;0.20;;
2896;SDS011;1458;49.728;9.228;2022-12-26T08:36:22;0.20;;;0.20;;
2896;SDS011;1458;49.728;9.228;2022-12-26T08:38:51;0.20;;;0.20;;
2896;SDS011;1458;49.728;9.228;2022-12-26T08:41:19;0.20;;;0.20;;
2896;SDS011;1458;49.728;9.228;2022-12-26T08:43:47;0.20;;;0.20;;
2896;SDS011;1458;49.728;9.228;2022-12-26T08:46:16;0.20;;;0.20;;
2896;SDS011;1458;49.728;9.228;2022-12-26T08:48:45;0.10;;;0.10;;
2896;SDS011;1458;49.728;9.228;2022-12-26T08:51:15;0.20;;;0.20;;
2896;SDS011;1458;49.728;9.228;2022-12-26T08:53:44;0.20;;;0.20;;
2896;SDS011;1458;49.728;9.228;2022-12-26T08:56:17;0.20;;;0.20;;
2896;SDS011;1458;49.728;9.228;2022-12-26T08:58:49;0.20;;;0.20;;
2896;SDS011;1458;49.728;9.228;2022-12-26T09:01:17;0.20;;;0.20;;
2896;SDS011;1458;49.728;9.228;2022-12-26T09:03:47;0.20;;;0.20;;
2896;SDS011;1458;49.728;9.228;2022-12-26T09:06:17;0.20;;;0.20;;
2896;SDS011;1458;49.728;9.228;2022-12-26T09:08:46;0.20;;;0.20;;
2896;SDS011;1458;49.728;9.228;2022-12-26T09:11:14;0.20;;;0.20;;
2896;SDS011;1458;49.728;9.228;2022-12-26T09:13:45;0.20;;;0.20;;
2896;SDS011;1458;49.728;9.228;2022-12-26T09:16:14;0.20;;;0.20;;
2896;SDS011;1458;49.728;9.228;2022-12-26T09:18:44;0.20;;;0.20;;
2896;SDS011;1458;49.728;9.228;2022-12-26T09:21:14;0.20;;;0.20;;
2896;SDS011;1458;49.728;9.228;2022-12-26T09:23:41;0.20;;;0.20;;
2896;SDS011;1458;49.728;9.228;2022-12-26T09:26:11;0.20;;;0.20;;
2896;SDS011;1458;49.728;9.228;2022-12-26T09:28:43;0.20;;;0.20;;
2896;SDS011;1458;49.728;9.228;2022-12-26T09:31:12;0.20;;;0.20;;
2896;SDS011;1458;49.728;9.228;2022-12-26T09:33:42;0.20;;;0.20;;
2896;SDS011;1458;49.728;9.228;2022-12-26T09:36:11;0.20;;;0.20;;
2896;SDS011;1458;49.728;9.228;2022-12-26T09:38:41;0.20;;;0.20;;
2896;SDS011;1458;49.728;9.228;2022-12-26T09:41:13;0.20;;;0.20;;
2896;SDS011;1458;49.728;9.228;2022-12-26T09:44:04;0.20;;;0.20;;
2896;SDS011;1458;49.728;9.228;2022-12-26T09:46:40;0.20;;;0.20;;
2896;SDS011;1458;49.728;9.228;2022-12-26T09:49:17;0.20;;;0.20;;
2896;SDS011;1458;49.728;9.228;2022-12-26T09:51:48;0.20;;;0.20;;
2896;SDS011;1458;49.728;9.228;2022-12-26T09:54:23;0.30;;;0.30;;
2896;SDS011;1458;49.728;9.228;2022-12-26T09:56:58;0.20;;;0.20;;
2896;SDS011;1458;49.728;9.228;2022-12-26T09:59:31;0.20;;;0.20;;
2896;SDS011;1458;49.728;9.228;2022-12-26T10:02:10;0.20;;;0.20;;
2896;SDS011;1458;49.728;9.228;2022-12-26T10:04:44;0.20;;;0.20;;
2896;SDS011;1458;49.728;9.228;2022-12-26T10:07:14;0.20;;;0.20;;
2896;SDS011;1458;49.728;9.228;2022-12-26T10:09:51;0.20;;;0.20;;
2896;SDS011;1458;49.728;9.228;2022-12-26T10:12:33;0.20;;;0.20;;
2896;SDS011;1458;49.728;9.228;2022-12-26T10:15:12;0.30;;;0.30;;
2896;SDS011;1458;49.728;9.228;2022-12-26T10:17:58;0.20;;;0.20;;
2896;SDS011;1458;49.728;9.228;2022-12-26T10:20:57;0.20;;;0.20;;
2896;SDS011;1458;49.728;9.228;2022-12-26T10:23:41;0.20;;;0.20;;
2896;SDS011;1458;49.728;9.228;2022-12-26T10:26:12;0.20;;;0.20;;
2896;SDS011;1458;49.728;9.228;2022-12-26T10:28:46;0.20;;;0.20;;
2896;SDS011;1458;49.728;9.228;2022-12-26T10:31:21;0.20;;;0.20;;
2896;SDS011;1458;49.728;9.228;2022-12-26T10:33:55;0.20;;;0.20;;
2896;SDS011;1458;49.728;9.228;2022-12-26T10:36:34;0.20;;;0.20;;
2896;SDS011;1458;49.728;9.228;2022-12-26T10:39:15;0.20;;;0.20;;
2896;SDS011;1458;49.728;9.228;2022-12-26T10:41:49;0.20;;;0.20;;
2896;SDS011;1458;49.728;9.228;2022-12-26T10:44:18;0.20;;;0.20;;
2896;SDS011;1458;49.728;9.228;2022-12-26T10:46:50;0.30;;;0.30;;
2896;SDS011;1458;49.728;9.228;2022-12-26T10:50:12;0.23;;;0.23;;
2896;SDS011;1458;49.728;9.228;2022-12-26T10:52:42;0.20;;;0.20;;
2896;SDS011;1458;49.728;9.228;2022-12-26T10:55:12;0.20;;;0.20;;
2896;SDS011;1458;49.728;9.228;2022-12-26T10:57:41;0.20;;;0.20;;
2896;SDS011;1458;49.728;9.228;2022-12-26T11:00:13;0.20;;;0.20;;
2896;SDS011;1458;49.728;9.228;2022-12-26T11:02:47;0.20;;;0.20;;
2896;SDS011;1458;49.728;9.228;2022-12-26T11:05:29;0.20;;;0.20;;
2896;SDS011;1458;49.728;9.228;2022-12-26T11:08:04;0.20;;;0.20;;
2896;SDS011;1458;49.728;9.228;2022-12-26T11:10:35;0.20;;;0.20;;
2896;SDS011;1458;49.728;9.228;2022-12-26T11:13:04;0.20;;;0.20;;
2896;SDS011;1458;49.728;9.228;2022-12-26T11:15:34;0.20;;;0.20;;
2896;SDS011;1458;49.728;9.228;2022-12-26T11:18:22;0.20;;;0.20;;
2896;SDS011;1458;49.728;9.228;2022-12-26T11:21:10;0.30;;;0.30;;
2896;SDS011;1458;49.728;9.228;2022-12-26T11:23:39;0.20;;;0.20;;
2896;SDS011;1458;49.728;9.228;2022-12-26T11:26:19;0.20;;;0.20;;
2896;SDS011;1458;49.728;9.228;2022-12-26T11:29:03;0.20;;;0.20;;
2896;SDS011;1458;49.728;9.228;2022-12-26T11:31:32;0.20;;;0.20;;
2896;SDS011;1458;49.728;9.228;2022-12-26T11:34:01;0.20;;;0.20;;
2896;SDS011;1458;49.728;9.228;2022-12-26T11:36:34;0.30;;;0.30;;
2896;SDS011;1458;49.728;9.228;2022-12-26T11:39:05;0.20;;;0.20;;
2896;SDS011;1458;49.728;9.228;2022-12-26T11:41:46;0.20;;;0.20;;
2896;SDS011;1458;49.728;9.228;2022-12-26T11:44:15;0.20;;;0.20;;
2896;SDS011;1458;49.728;9.228;2022-12-26T11:46:50;0.20;;;0.20;;
2896;SDS011;1458;49.728;9.228;2022-12-26T11:49:28;0.30;;;0.30;;
2896;SDS011;1458;49.728;9.228;2022-12-26T11:52:00;0.20;;;0.20;;
2896;SDS011;1458;49.728;9.228;2022-12-26T11:54:51;0.37;;;0.37;;
2896;SDS011;1458;49.728;9.228;2022-12-26T11:57:18;0.20;;;0.20;;
2896;SDS011;1458;49.728;9.228;2022-12-26T11:59:48;0.30;;;0.30;;
2896;SDS011;1458;49.728;9.228;2022-12-26T12:02:22;0.30;;;0.30;;
2896;SDS011;1458;49.728;9.228;2022-12-26T12:04:56;0.30;;;0.30;;
2896;SDS011;1458;49.728;9.228;2022-12-26T12:07:31;0.20;;;0.20;;
2896;SDS011;1458;49.728;9.228;2022-12-26T12:10:26;0.20;;;0.20;;
2896;SDS011;1458;49.728;9.228;2022-12-26T12:13:28;0.27;;;0.27;;
2896;SDS011;1458;49.728;9.228;2022-12-26T12:16:09;0.30;;;0.30;;
2896;SDS011;1458;49.728;9.228;2022-12-26T12:18:58;0.23;;;0.23;;
2896;SDS011;1458;49.728;9.228;2022-12-26T12:21:41;0.20;;;0.20;;
2896;SDS011;1458;49.728;9.228;2022-12-26T12:27:09;0.20;;;0.20;;
2896;SDS011;1458;49.728;9.228;2022-12-26T12:29:51;0.20;;;0.20;;
2896;SDS011;1458;49.728;9.228;2022-12-26T12:32:36;0.20;;;0.20;;
2896;SDS011;1458;49.728;9.228;2022-12-26T12:35:19;0.20;;;0.20;;
2896;SDS011;1458;49.728;9.228;2022-12-26T12:38:13;0.20;;;0.20;;
2896;SDS011;1458;49.728;9.228;2022-12-26T12:40:54;0.20;;;0.20;;
2896;SDS011;1458;49.728;9.228;2022-12-26T12:43:53;0.20;;;0.20;;
2896;SDS011;1458;49.728;9.228;2022-12-26T12:46:29;0.20;;;0.20;;
2896;SDS011;1458;49.728;9.228;2022-12-26T12:49:12;0.30;;;0.30;;
2896;SDS011;1458;49.728;9.228;2022-12-26T12:51:59;0.20;;;0.20;;
2896;SDS011;1458;49.728;9.228;2022-12-26T12:54:57;0.20;;;0.20;;
2896;SDS011;1458;49.728;9.228;2022-12-26T12:58:05;0.30;;;0.30;;
2896;SDS011;1458;49.728;9.228;2022-12-26T13:00:42;0.20;;;0.20;;
2896;SDS011;1458;49.728;9.228;2022-12-26T13:03:17;0.20;;;0.20;;
2896;SDS011;1458;49.728;9.228;2022-12-26T13:05:54;0.30;;;0.30;;
2896;SDS011;1458;49.728;9.228;2022-12-26T13:08:30;0.20;;;0.20;;
2896;SDS011;1458;49.728;9.228;2022-12-26T13:11:04;0.20;;;0.20;;
2896;SDS011;1458;49.728;9.228;2022-12-26T13:13:39;0.20;;;0.20;;
2896;SDS011;1458;49.728;9.228;2022-12-26T13:16:11;0.20;;;0.20;;
2896;SDS011;1458;49.728;9.228;2022-12-26T13:18:44;0.20;;;0.20;;
2896;SDS011;1458;49.728;9.228;2022-12-26T13:21:17;0.20;;;0.20;;
2896;SDS011;1458;49.728;9.228;2022-12-26T13:23:47;0.20;;;0.20;;
2896;SDS011;1458;49.728;9.228;2022-12-26T13:26:38;0.20;;;0.20;;
2896;SDS011;1458;49.728;9.228;2022-12-26T13:29:10;0.27;;;0.27;;
2896;SDS011;1458;49.728;9.228;2022-12-26T13:31:44;0.20;;;0.20;;
2896;SDS011;1458;49.728;9.228;2022-12-26T13:34:13;0.20;;;0.20;;
2896;SDS011;1458;49.728;9.228;2022-12-26T13:36:44;0.30;;;0.30;;
2896;SDS011;1458;49.728;9.228;2022-12-26T13:39:28;0.20;;;0.20;;
2896;SDS011;1458;49.728;9.228;2022-12-26T13:42:02;0.23;;;0.23;;
2896;SDS011;1458;49.728;9.228;2022-12-26T13:51:54;0.20;;;0.20;;
2896;SDS011;1458;49.728;9.228;2022-12-26T13:54:25;0.20;;;0.20;;
2896;SDS011;1458;49.728;9.228;2022-12-26T13:56:58;0.20;;;0.20;;
2896;SDS011;1458;49.728;9.228;2022-12-26T14:03:14;0.30;;;0.30;;
2896;SDS011;1458;49.728;9.228;2022-12-26T14:06:21;0.20;;;0.20;;
2896;SDS011;1458;49.728;9.228;2022-12-26T14:09:31;0.20;;;0.20;;
2896;SDS011;1458;49.728;9.228;2022-12-26T14:12:19;0.20;;;0.20;;
2896;SDS011;1458;49.728;9.228;2022-12-26T14:15:15;0.20;;;0.20;;
2896;SDS011;1458;49.728;9.228;2022-12-26T14:17:53;0.20;;;0.20;;
2896;SDS011;1458;49.728;9.228;2022-12-26T14:20:38;0.20;;;0.20;;
2896;SDS011;1458;49.728;9.228;2022-12-26T14:23:13;0.20;;;0.20;;
2896;SDS011;1458;49.728;9.228;2022-12-26T14:26:01;0.20;;;0.20;;
2896;SDS011;1458;49.728;9.228;2022-12-26T14:28:46;0.20;;;0.20;;
2896;SDS011;1458;49.728;9.228;2022-12-26T14:31:24;0.47;;;0.47;;
2896;SDS011;1458;49.728;9.228;2022-12-26T14:34:04;0.30;;;0.30;;
2896;SDS011;1458;49.728;9.228;2022-12-26T14:36:46;0.30;;;0.30;;
2896;SDS011;1458;49.728;9.228;2022-12-26T14:39:23;0.20;;;0.20;;
2896;SDS011;1458;49.728;9.228;2022-12-26T14:45:08;0.30;;;0.30;;
2896;SDS011;1458;49.728;9.228;2022-12-26T14:47:54;0.27;;;0.27;;
2896;SDS011;1458;49.728;9.228;2022-12-26T14:50:38;0.20;;;0.20;;
2896;SDS011;1458;49.728;9.228;2022-12-26T14:53:17;0.20;;;0.20;;
2896;SDS011;1458;49.728;9.228;2022-12-26T14:55:58;0.20;;;0.20;;
2896;SDS011;1458;49.728;9.228;2022-12-26T14:58:29;0.20;;;0.20;;
2896;SDS011;1458;49.728;9.228;2022-12-26T15:04:22;0.20;;;0.20;;
2896;SDS011;1458;49.728;9.228;2022-12-26T15:07:33;0.20;;;0.20;;
2896;SDS011;1458;49.728;9.228;2022-12-26T15:17:48;0.20;;;0.20;;
2896;SDS011;1458;49.728;9.228;2022-12-26T15:20:49;0.20;;;0.20;;
2896;SDS011;1458;49.728;9.228;2022-12-26T15:27:11;0.20;;;0.20;;
2896;SDS011;1458;49.728;9.228;2022-12-26T15:30:30;0.20;;;0.20;;
2896;SDS011;1458;49.728;9.228;2022-12-26T15:33:18;0.20;;;0.20;;
2896;SDS011;1458;49.728;9.228;2022-12-26T15:35:52;0.20;;;0.20;;
2896;SDS011;1458;49.728;9.228;2022-12-26T15:38:31;0.20;;;0.20;;
2896;SDS011;1458;49.728;9.228;2022-12-26T15:41:10;0.20;;;0.20;;
2896;SDS011;1458;49.728;9.228;2022-12-26T15:43:48;0.30;;;0.30;;
2896;SDS011;1458;49.728;9.228;2022-12-26T15:46:26;0.23;;;0.23;;
2896;SDS011;1458;49.728;9.228;2022-12-26T15:51:58;0.30;;;0.30;;
2896;SDS011;1458;49.728;9.228;2022-12-26T15:57:44;0.20;;;0.20;;
2896;SDS011;1458;49.728;9.228;2022-12-26T16:00:20;0.20;;;0.20;;
2896;SDS011;1458;49.728;9.228;2022-12-26T16:02:55;0.20;;;0.20;;
2896;SDS011;1458;49.728;9.228;2022-12-26T16:05:54;0.30;;;0.30;;
2896;SDS011;1458;49.728;9.228;2022-12-26T16:08:42;0.30;;;0.30;;
2896;SDS011;1458;49.728;9.228;2022-12-26T16:11:24;0.20;;;0.20;;
2896;SDS011;1458;49.728;9.228;2022-12-26T16:13:56;0.20;;;0.20;;
2896;SDS011;1458;49.728;9.228;2022-12-26T16:16:27;0.20;;;0.20;;
2896;SDS011;1458;49.728;9.228;2022-12-26T16:19:12;0.20;;;0.20;;
2896;SDS011;1458;49.728;9.228;2022-12-26T16:21:43;0.20;;;0.20;;
2896;SDS011;1458;49.728;9.228;2022-12-26T16:24:32;0.20;;;0.20;;
2896;SDS011;1458;49.728;9.228;2022-12-26T16:27:02;0.30;;;0.30;;
2896;SDS011;1458;49.728;9.228;2022-12-26T16:29:33;0.30;;;0.30;;
2896;SDS011;1458;49.728;9.228;2022-12-26T16:32:12;0.20;;;0.20;;
2896;SDS011;1458;49.728;9.228;2022-12-26T16:34:44;0.20;;;0.20;;
2896;SDS011;1458;49.728;9.228;2022-12-26T16:37:16;0.20;;;0.20;;
2896;SDS011;1458;49.728;9.228;2022-12-26T16:43:00;0.27;;;0.27;;
2896;SDS011;1458;49.728;9.228;2022-12-26T16:45:30;0.20;;;0.20;;
2896;SDS011;1458;49.728;9.228;2022-12-26T16:47:59;0.30;;;0.30;;
2896;SDS011;1458;49.728;9.228;2022-12-26T16:50:30;0.20;;;0.20;;
2896;SDS011;1458;49.728;9.228;2022-12-26T16:53:09;0.30;;;0.30;;
2896;SDS011;1458;49.728;9.228;2022-12-26T16:55:40;0.20;;;0.20;;